Time;durP1;ratioP1;P1;durP2;ratioP2;P2;SDS_P1;SDS_P2;PMS_P1;PMS_P2;Temp;Humidity;BMP_temperature;BMP_pressure;BME280_temperature;BME280_humidity;BME280_pressure;Samples;Min_cycle;Max_cycle;Signal;HPM_P1;HPM_P2
2022/07/13 00:07:56;;;;;;;3.13;1.63;;;19.20;69.20;;;;;;21067049;28;20240;-72
2022/07/13 00:17:57;;;;;;;2.77;1.80;;;19.20;69.50;;;;;;21073294;28;20204;-70
2022/07/13 00:27:59;;;;;;;2.70;1.70;;;19.10;69.90;;;;;;20996916;28;20237;-70
2022/07/13 00:38:01;;;;;;;3.40;1.50;;;18.90;70.80;;;;;;20999675;28;20544;-71
2022/07/13 00:48:03;;;;;;;3.27;1.93;;;18.90;71.60;;;;;;20997781;28;20300;-71
2022/07/13 00:58:07;;;;;;;2.47;1.70;;;18.70;72.10;;;;;;20997744;28;20212;-71
2022/07/13 01:08:11;;;;;;;1.80;1.40;;;18.60;72.90;;;;;;20996058;28;20580;-70
2022/07/13 01:18:13;;;;;;;2.10;1.60;;;18.60;73.70;;;;;;20996423;28;20604;-71
2022/07/13 01:28:15;;;;;;;2.70;1.83;;;18.70;74.20;;;;;;21001063;28;20266;-71
2022/07/13 01:38:17;;;;;;;2.00;1.50;;;18.70;74.60;;;;;;21020494;28;20205;-71
2022/07/13 01:48:18;;;;;;;2.87;1.60;;;18.80;75.20;;;;;;20995584;28;20456;-70
2022/07/13 01:58:20;;;;;;;3.80;1.80;;;18.90;75.70;;;;;;20998325;28;20292;-71
2022/07/13 02:08:23;;;;;;;8.87;2.30;;;18.90;76.30;;;;;;21010798;28;20235;-72
2022/07/13 02:18:25;;;;;;;1.87;1.73;;;18.90;76.90;;;;;;21015008;28;20567;-73
2022/07/13 02:28:27;;;;;;;3.47;1.70;;;18.90;77.30;;;;;;21093612;28;20243;-70
2022/07/13 02:38:29;;;;;;;2.67;2.00;;;18.90;77.70;;;;;;21092660;28;20221;-71
2022/07/13 02:48:30;;;;;;;2.47;1.80;;;18.70;78.10;;;;;;21091586;28;20696;-69
2022/07/13 02:58:32;;;;;;;2.47;1.70;;;18.70;78.40;;;;;;21091431;28;20209;-70
2022/07/13 03:08:34;;;;;;;2.63;1.73;;;18.70;78.70;;;;;;21089288;28;20694;-70
2022/07/13 03:18:36;;;;;;;3.80;1.80;;;18.70;79.00;;;;;;21089363;28;20214;-71
2022/07/13 03:28:37;;;;;;;2.87;1.60;;;18.60;79.30;;;;;;21088700;28;20703;-73
2022/07/13 03:38:39;;;;;;;6.10;1.97;;;18.50;80.70;;;;;;21087578;28;20204;-70
2022/07/13 03:48:41;;;;;;;5.17;1.80;;;18.40;81.60;;;;;;21086667;28;20725;-70
2022/07/13 03:58:42;;;;;;;5.83;1.90;;;18.40;81.80;;;;;;21086353;28;20208;-69
2022/07/13 04:08:44;;;;;;;7.40;2.70;;;18.50;82.10;;;;;;21085163;28;20261;-72
2022/07/13 04:18:46;;;;;;;5.27;2.50;;;18.40;82.60;;;;;;21081488;28;20214;-69
2022/07/13 04:28:48;;;;;;;2.53;1.93;;;18.50;83.20;;;;;;21080111;28;20232;-69
2022/07/13 04:38:49;;;;;;;4.83;2.40;;;18.40;83.50;;;;;;21082719;28;20686;-70
2022/07/13 04:49:02;;;;;;;6.63;2.40;;;18.30;84.00;;;;;;21067662;27;20587;-67
2022/07/13 04:59:03;;;;;;;3.83;1.97;;;18.50;84.10;;;;;;21066497;28;20620;-68
2022/07/13 05:09:06;;;;;;;2.50;1.90;;;18.70;83.80;;;;;;21064516;28;20213;-69
2022/07/13 05:19:08;;;;;;;5.80;2.33;;;18.90;83.60;;;;;;21062475;28;20223;-69
2022/07/13 05:29:10;;;;;;;12.10;2.60;;;19.10;83.30;;;;;;21058725;28;20213;-71
2022/07/13 05:39:11;;;;;;;33.13;4.53;;;19.30;82.90;;;;;;21052375;28;20228;-72
2022/07/13 05:49:13;;;;;;;40.73;5.10;;;19.40;82.90;;;;;;21054153;28;20582;-73
2022/07/13 05:59:15;;;;;;;38.50;5.87;;;19.50;82.80;;;;;;21010089;28;20206;-70
2022/07/13 06:09:17;;;;;;;29.27;4.47;;;19.60;83.00;;;;;;21003545;28;20628;-70
2022/07/13 06:19:19;;;;;;;21.17;3.50;;;19.70;83.20;;;;;;20998768;28;20731;-70
2022/07/13 06:29:20;;;;;;;13.17;3.30;;;19.90;82.90;;;;;;20915059;28;20215;-70
2022/07/13 06:39:22;;;;;;;11.63;2.80;;;20.20;82.10;;;;;;20917451;28;20239;-71
2022/07/13 06:49:24;;;;;;;7.57;2.30;;;20.50;81.30;;;;;;20912035;28;20214;-66
2022/07/13 06:59:25;;;;;;;4.07;1.80;;;20.80;80.30;;;;;;20910920;28;20204;-64
2022/07/13 07:09:27;;;;;;;4.70;2.10;;;21.00;79.10;;;;;;20912515;28;20214;-64
2022/07/13 07:19:29;;;;;;;6.40;2.03;;;21.30;78.20;;;;;;20947439;28;20230;-72
2022/07/13 07:29:31;;;;;;;6.10;2.03;;;21.60;76.80;;;;;;20989862;28;20200;-71
2022/07/13 07:39:36;;;;;;;5.00;1.87;;;21.80;75.80;;;;;;20911569;28;20240;-72
2022/07/13 07:49:37;;;;;;;5.27;1.80;;;22.10;74.90;;;;;;20912740;28;20218;-72
2022/07/13 07:59:42;;;;;;;4.03;1.63;;;22.40;73.80;;;;;;20943461;28;20285;-72
2022/07/13 08:09:44;;;;;;;4.77;1.60;;;22.70;73.20;;;;;;20949870;28;20620;-72
2022/07/13 08:19:45;;;;;;;9.43;4.57;;;23.00;72.30;;;;;;21009048;28;20234;-72
2022/07/13 08:29:47;;;;;;;10.73;4.67;;;23.30;71.50;;;;;;21069159;28;20267;-72
2022/07/13 08:39:49;;;;;;;12.27;6.30;;;23.40;70.70;;;;;;21070001;28;20257;-72
2022/07/13 08:49:55;;;;;;;5.13;1.80;;;23.70;69.20;;;;;;21068881;28;20269;-72
2022/07/13 09:00:11;;;;;;;6.40;1.63;;;24.20;67.50;;;;;;21073573;28;20309;-72
2022/07/13 09:10:13;;;;;;;7.27;1.57;;;24.70;64.20;;;;;;21075129;28;20219;-71
2022/07/13 09:20:15;;;;;;;4.00;1.80;;;25.10;60.60;;;;;;21075392;28;20234;-70
2022/07/13 09:30:24;;;;;;;4.10;1.60;;;25.60;57.90;;;;;;21081271;28;20238;-71
2022/07/13 09:40:26;;;;;;;5.57;1.73;;;25.90;56.30;;;;;;21090623;28;20321;-72
2022/07/13 09:50:41;;;;;;;2.13;1.33;;;26.10;55.30;;;;;;21089231;28;20576;-73
2022/07/13 10:00:42;;;;;;;2.77;2.30;;;26.30;53.90;;;;;;21088571;28;20226;-72
2022/07/13 10:10:46;;;;;;;6.83;2.90;;;26.40;54.00;;;;;;21088809;28;20275;-72
2022/07/13 10:20:57;;;;;;;4.57;3.60;;;26.50;54.00;;;;;;21021028;28;20767;-72
2022/07/13 10:31:28;;;;;;;4.27;3.63;;;26.50;53.80;;;;;;20918270;28;20218;-73
2022/07/13 10:41:30;;;;;;;2.23;1.93;;;26.50;53.50;;;;;;20916718;28;20247;-72
2022/07/13 10:51:32;;;;;;;5.30;2.40;;;26.60;52.70;;;;;;20914834;28;20211;-72
2022/07/13 11:01:37;;;;;;;9.03;2.53;;;26.80;52.10;;;;;;20916119;28;20235;-73
2022/07/13 11:11:47;;;;;;;2.13;1.70;;;27.10;51.70;;;;;;20915010;28;20615;-72
2022/07/13 11:22:11;;;;;;;10.27;4.70;;;27.20;51.30;;;;;;20912886;28;20232;-73
2022/07/13 11:32:12;;;;;;;2.30;1.40;;;27.40;50.90;;;;;;20912514;28;20211;-72
2022/07/13 11:42:14;;;;;;;3.20;1.53;;;27.50;50.00;;;;;;20912547;28;20623;-72
2022/07/13 11:52:21;;;;;;;2.50;2.25;;;27.90;48.00;;;;;;20989171;28;20204;-72
2022/07/13 12:02:22;;;;;;;1.27;1.20;;;28.00;45.20;;;;;;20993621;28;20237;-72
2022/07/13 12:12:28;;;;;;;2.35;1.20;;;28.00;44.80;;;;;;20995254;28;20638;-72
2022/07/13 12:22:30;;;;;;;4.43;0.98;;;28.10;43.30;;;;;;20951501;28;20618;-72
2022/07/13 12:32:32;;;;;;;2.70;1.10;;;28.30;42.70;;;;;;20902508;28;20204;-73
2022/07/13 12:42:35;;;;;;;13.63;1.10;;;28.40;42.10;;;;;;20909110;28;20243;-72
2022/07/13 12:52:36;;;;;;;1.07;1.07;;;28.40;42.00;;;;;;20909788;28;20241;-73
2022/07/13 13:02:39;;;;;;;2.60;1.90;;;28.40;41.80;;;;;;20912617;28;20254;-72
2022/07/13 13:12:41;;;;;;;3.33;1.20;;;28.50;41.40;;;;;;20935822;28;20199;-71
2022/07/13 13:22:43;;;;;;;5.78;1.50;;;28.90;41.40;;;;;;21008094;28;20239;-71
2022/07/13 13:32:44;;;;;;;1.10;0.90;;;28.90;40.90;;;;;;21006683;28;20217;-72
2022/07/13 13:42:46;;;;;;;7.00;6.32;;;29.30;39.50;;;;;;21001389;28;20240;-71
2022/07/13 13:52:55;;;;;;;6.82;1.60;;;29.30;38.80;;;;;;21003700;28;20211;-73
2022/07/13 14:02:57;;;;;;;7.38;2.92;;;29.50;37.80;;;;;;21003016;28;20336;-72
2022/07/13 14:12:59;;;;;;;2.55;1.27;;;29.60;36.80;;;;;;20999602;28;20292;-71
2022/07/13 14:23:01;;;;;;;2.33;2.13;;;29.80;36.20;;;;;;20991106;28;20239;-71
2022/07/13 14:33:03;;;;;;;3.83;1.77;;;29.70;36.50;;;;;;20997858;28;20218;-73
2022/07/13 14:43:05;;;;;;;2.55;1.35;;;29.70;36.90;;;;;;21001807;28;20243;-71
2022/07/13 14:53:06;;;;;;;3.25;1.42;;;29.90;36.90;;;;;;21001587;28;20579;-72
2022/07/13 15:03:09;;;;;;;1.40;1.20;;;30.90;36.00;;;;;;21003101;28;20231;-72
2022/07/13 15:13:11;;;;;;;1.48;1.00;;;31.10;34.00;;;;;;21005442;28;20211;-73
2022/07/13 15:23:13;;;;;;;2.28;1.05;;;30.70;32.90;;;;;;21000042;28;20227;-73
2022/07/13 15:33:15;;;;;;;0.80;0.80;;;31.10;30.10;;;;;;20998168;28;20203;-72
2022/07/13 15:43:17;;;;;;;2.92;0.93;;;30.70;30.50;;;;;;20998273;28;20243;-71
2022/07/13 15:53:19;;;;;;;2.47;0.80;;;30.40;30.00;;;;;;20997400;28;20210;-74
2022/07/13 16:03:22;;;;;;;3.17;1.33;;;30.20;30.70;;;;;;20997231;28;20257;-73
2022/07/13 16:13:24;;;;;;;5.35;1.10;;;30.40;31.40;;;;;;20995272;28;20204;-71
2022/07/13 16:23:28;;;;;;;0.90;0.80;;;32.00;30.30;;;;;;20958856;28;20578;-72
2022/07/13 16:33:30;;;;;;;1.30;0.90;;;30.80;31.10;;;;;;20910854;28;20200;-73
2022/07/13 16:43:32;;;;;;;1.65;1.30;;;30.60;31.40;;;;;;20912431;28;20271;-72
2022/07/13 16:53:34;;;;;;;2.95;0.88;;;30.40;31.00;;;;;;20911983;28;20299;-72
2022/07/13 17:03:35;;;;;;;2.22;0.82;;;30.20;30.00;;;;;;20911505;28;20323;-71
2022/07/13 17:13:37;;;;;;;3.03;0.70;;;30.20;29.80;;;;;;20911604;28;20208;-72
2022/07/13 17:23:40;;;;;;;3.75;1.20;;;30.00;29.40;;;;;;20910898;28;20247;-74
2022/07/13 17:33:42;;;;;;;2.30;0.90;;;29.70;29.70;;;;;;20909771;28;20204;-73
2022/07/13 17:43:44;;;;;;;5.35;0.80;;;29.40;29.70;;;;;;20910828;28;20271;-73
2022/07/13 17:53:46;;;;;;;1.10;0.50;;;29.20;29.30;;;;;;20918947;28;20204;-72
2022/07/13 18:03:48;;;;;;;0.65;0.63;;;29.00;29.00;;;;;;20921252;28;20232;-72
2022/07/13 18:13:50;;;;;;;0.57;0.57;;;28.80;28.80;;;;;;20920756;28;20414;-75
2022/07/13 18:23:52;;;;;;;2.38;0.80;;;28.70;29.10;;;;;;20951018;28;20231;-77
2022/07/13 18:33:53;;;;;;;1.00;0.77;;;28.60;29.50;;;;;;21031097;28;20681;-75
2022/07/13 18:43:55;;;;;;;1.77;0.63;;;28.40;29.80;;;;;;21085790;28;20244;-71
2022/07/13 18:53:57;;;;;;;0.47;0.47;;;28.30;30.10;;;;;;21086980;28;20202;-71
2022/07/13 19:03:59;;;;;;;7.07;1.33;;;28.10;30.70;;;;;;21073520;28;20227;-64
2022/07/13 19:14:04;;;;;;;4.80;1.50;;;28.00;32.40;;;;;;21048063;28;20210;-66
2022/07/13 19:24:06;;;;;;;3.43;1.00;;;27.70;36.60;;;;;;21036859;28;20223;-70
2022/07/13 19:34:08;;;;;;;4.93;1.20;;;27.40;37.00;;;;;;20999816;28;20293;-66
2022/07/13 19:44:10;;;;;;;2.53;0.90;;;27.30;36.70;;;;;;21070402;28;20244;-66
2022/07/13 19:54:12;;;;;;;1.97;0.87;;;27.10;36.60;;;;;;21081982;28;20242;-65
2022/07/13 20:04:14;;;;;;;1.30;0.97;;;27.00;36.60;;;;;;21081611;28;20234;-65
2022/07/13 20:14:16;;;;;;;4.03;1.20;;;26.90;36.90;;;;;;21015245;28;20317;-67
2022/07/13 20:24:17;;;;;;;1.67;1.10;;;26.60;40.30;;;;;;20995588;28;20227;-65
2022/07/13 20:34:19;;;;;;;3.10;1.20;;;26.40;42.10;;;;;;20995196;28;20206;-65
2022/07/13 20:44:21;;;;;;;1.37;0.90;;;26.20;42.30;;;;;;20994465;28;20258;-65
2022/07/13 20:54:22;;;;;;;2.10;0.73;;;26.10;42.00;;;;;;20994150;28;20299;-65
2022/07/13 21:04:24;;;;;;;2.27;0.80;;;26.00;42.20;;;;;;20977423;28;20647;-64
2022/07/13 21:14:26;;;;;;;3.07;1.00;;;25.80;43.20;;;;;;20909110;28;20230;-70
2022/07/13 21:24:28;;;;;;;0.97;0.83;;;25.70;44.10;;;;;;20941469;28;20227;-63
2022/07/13 21:34:29;;;;;;;2.60;1.10;;;25.60;44.20;;;;;;21006893;28;20211;-62
2022/07/13 21:44:31;;;;;;;4.60;0.97;;;25.50;43.90;;;;;;21007993;28;20238;-63
2022/07/13 21:54:33;;;;;;;3.33;1.10;;;25.40;44.40;;;;;;21007885;28;20276;-64
2022/07/13 22:04:40;;;;;;;3.77;1.30;;;25.20;44.90;;;;;;21006500;28;20238;-61
2022/07/13 22:15:19;;;;;;;3.93;1.20;;;25.10;44.80;;;;;;21000786;28;20227;-70
2022/07/13 22:26:19;;;;;;;2.87;1.20;;;25.00;45.40;;;;;;20918079;28;20285;-62
2022/07/13 22:36:58;;;;;;;6.70;1.20;;;24.90;45.50;;;;;;20920098;28;20214;-62
2022/07/13 22:47:37;;;;;;;2.20;1.10;;;24.70;46.50;;;;;;20920377;28;20251;-65
2022/07/13 22:58:17;;;;;;;3.80;1.50;;;24.50;47.30;;;;;;20920169;28;20207;-68
2022/07/13 23:08:56;;;;;;;2.67;1.23;;;24.30;48.10;;;;;;20919297;28;20236;-61
2022/07/13 23:19:36;;;;;;;2.37;1.33;;;24.20;48.90;;;;;;20918223;28;20217;-62
2022/07/13 23:29:38;;;;;;;2.70;1.20;;;24.00;49.70;;;;;;20917198;28;20227;-68
2022/07/13 23:39:40;;;;;;;1.50;1.17;;;24.00;49.80;;;;;;20916654;28;20238;-62
2022/07/13 23:49:41;;;;;;;2.77;1.30;;;23.90;49.90;;;;;;20915110;28;20323;-62
2022/07/13 23:59:43;;;;;;;5.80;1.53;;;23.70;50.60;;;;;;20915425;28;20207;-72
